createdAt,value
2023-05-09T00:01:17.066Z,12.44
2023-05-09T00:03:45.399Z,12.41
2023-05-09T00:06:13.482Z,12.28
2023-05-09T00:08:41.697Z,12.37
2023-05-09T00:11:09.949Z,12.37
2023-05-09T00:13:38.781Z,12.28
2023-05-09T00:16:08.463Z,12.41
2023-05-09T00:18:38.086Z,12.38
2023-05-09T00:21:06.155Z,12.36
2023-05-09T00:23:34.360Z,12.33
2023-05-09T00:26:02.700Z,12.32
2023-05-09T00:28:30.875Z,12.19
2023-05-09T00:30:59.431Z,12.21
2023-05-09T00:33:28.930Z,11.90
2023-05-09T00:35:58.344Z,12.16
2023-05-09T00:38:26.475Z,11.87
2023-05-09T00:40:54.552Z,12.17
2023-05-09T00:43:22.770Z,12.11
2023-05-09T00:45:51.289Z,12.10
2023-05-09T00:48:19.607Z,11.98
2023-05-09T00:50:52.859Z,11.86
2023-05-09T00:53:23.035Z,12.02
2023-05-09T00:55:51.506Z,11.74
2023-05-09T00:58:19.868Z,12.00
2023-05-09T01:00:49.028Z,12.00
2023-05-09T01:03:17.741Z,12.00
2023-05-09T01:05:56.192Z,12.00
2023-05-09T01:08:38.698Z,12.00
2023-05-09T01:11:12.131Z,11.88
2023-05-09T01:13:51.205Z,11.98
2023-05-09T01:16:31.430Z,12.04
2023-05-09T01:19:09.640Z,12.06
2023-05-09T01:21:42.195Z,12.05
2023-05-09T01:24:28.146Z,12.04
2023-05-09T01:27:16.372Z,12.08
2023-05-09T01:29:48.587Z,12.06
2023-05-09T01:32:21.131Z,11.99
2023-05-09T01:34:53.106Z,11.96
2023-05-09T01:37:26.198Z,11.98
2023-05-09T01:39:57.239Z,11.99
2023-05-09T01:42:28.081Z,11.95
2023-05-09T01:44:59.824Z,11.98
2023-05-09T01:47:28.850Z,11.99
2023-05-09T01:49:57.755Z,11.92
2023-05-09T01:52:28.126Z,11.98
2023-05-09T01:54:57.871Z,11.98
2023-05-09T01:57:26.980Z,11.93
2023-05-09T01:59:57.289Z,11.97
2023-05-09T02:02:26.961Z,11.95
2023-05-09T02:04:58.096Z,11.93
2023-05-09T02:07:27.399Z,11.98
2023-05-09T02:09:56.863Z,11.94
2023-05-09T02:12:25.452Z,11.93
2023-05-09T02:14:53.807Z,11.95
2023-05-09T02:17:23.414Z,11.99
2023-05-09T02:19:51.524Z,12.06
2023-05-09T02:22:19.782Z,12.03
2023-05-09T02:24:49.175Z,12.07
2023-05-09T02:27:17.731Z,12.09
2023-05-09T02:29:50.217Z,12.11
2023-05-09T02:32:23.683Z,12.02
2023-05-09T02:34:54.543Z,11.98
2023-05-09T02:37:23.422Z,12.11
2023-05-09T02:39:51.886Z,12.07
2023-05-09T02:42:25.297Z,12.10
2023-05-09T02:44:53.772Z,12.08
2023-05-09T02:47:22.368Z,12.11
2023-05-09T02:49:50.451Z,12.10
2023-05-09T02:52:20.188Z,12.07
2023-05-09T02:54:49.264Z,11.83
2023-05-09T02:57:17.309Z,12.06
2023-05-09T02:59:45.416Z,12.04
2023-05-09T03:02:13.909Z,11.95
2023-05-09T03:04:42.492Z,11.95
2023-05-09T03:07:10.471Z,11.95
2023-05-09T03:09:41.167Z,11.86
2023-05-09T03:12:09.538Z,11.86
2023-05-09T03:14:37.658Z,11.83
2023-05-09T03:17:05.827Z,11.82
2023-05-09T03:19:34.253Z,11.81
2023-05-09T03:22:02.233Z,11.61
2023-05-09T03:24:30.272Z,11.55
2023-05-09T03:26:59.704Z,11.65
2023-05-09T03:29:27.794Z,11.66
2023-05-09T03:31:55.893Z,11.63
2023-05-09T03:34:24.020Z,11.57
2023-05-09T03:36:52.088Z,11.48
2023-05-09T03:39:20.152Z,11.43
2023-05-09T03:41:48.986Z,11.35
2023-05-09T03:44:18.633Z,11.29
2023-05-09T03:46:46.855Z,11.25
2023-05-09T03:49:14.879Z,11.23
2023-05-09T03:51:43.124Z,11.28
2023-05-09T03:54:11.342Z,11.27
2023-05-09T03:56:40.341Z,11.29
2023-05-09T03:59:08.570Z,11.36
2023-05-09T04:01:40.290Z,11.30
2023-05-09T04:04:08.703Z,11.46
2023-05-09T04:06:37.971Z,11.46
2023-05-09T04:09:06.691Z,11.32
2023-05-09T04:11:34.753Z,11.54
2023-05-09T04:14:07.022Z,11.57
2023-05-09T04:16:38.041Z,11.55
2023-05-09T04:19:07.449Z,11.57
2023-05-09T04:21:35.764Z,11.55
2023-05-09T04:24:03.831Z,11.45
2023-05-09T04:26:32.812Z,11.63
2023-05-09T04:29:01.098Z,11.57
2023-05-09T04:31:29.338Z,11.63
2023-05-09T04:33:59.165Z,11.66
2023-05-09T04:36:29.566Z,11.70
2023-05-09T04:38:58.046Z,11.72
2023-05-09T04:41:26.346Z,11.78
2023-05-09T04:43:54.673Z,11.89
2023-05-09T04:46:24.988Z,11.94
2023-05-09T04:48:53.757Z,11.95
2023-05-09T04:51:23.583Z,11.82
2023-05-09T04:53:52.312Z,11.96
2023-05-09T04:56:20.377Z,12.00
2023-05-09T04:58:48.858Z,11.91
2023-05-09T05:01:17.288Z,12.07
2023-05-09T05:03:46.305Z,11.98
2023-05-09T05:06:14.593Z,12.09
2023-05-09T05:08:45.150Z,11.91
2023-05-09T05:11:13.761Z,12.02
2023-05-09T05:13:42.338Z,12.14
2023-05-09T05:16:10.499Z,12.32
2023-05-09T05:18:38.750Z,12.25
2023-05-09T05:21:06.942Z,12.49
2023-05-09T05:23:34.964Z,12.54
2023-05-09T05:26:04.553Z,12.70
2023-05-09T05:28:33.211Z,12.78
2023-05-09T05:31:01.478Z,12.77
2023-05-09T05:33:29.827Z,12.78
2023-05-09T05:35:58.098Z,13.02
2023-05-09T05:38:26.205Z,13.17
2023-05-09T05:40:54.525Z,13.38
2023-05-09T05:43:24.194Z,13.29
2023-05-09T05:45:52.641Z,13.37
2023-05-09T05:48:21.446Z,13.39
2023-05-09T05:50:50.082Z,13.33
2023-05-09T05:53:18.849Z,13.49
2023-05-09T05:55:47.348Z,13.29
2023-05-09T05:58:16.374Z,13.30
2023-05-09T06:00:46.349Z,13.60
2023-05-09T06:03:14.897Z,13.82
2023-05-09T06:05:44.260Z,13.56
2023-05-09T06:08:12.333Z,13.65
2023-05-09T06:10:40.806Z,13.69
2023-05-09T06:13:09.186Z,13.82
2023-05-09T06:15:37.319Z,14.15
2023-05-09T06:18:07.216Z,14.13
2023-05-09T06:20:37.018Z,13.95
2023-05-09T06:23:05.603Z,13.98
2023-05-09T06:25:34.243Z,14.05
2023-05-09T06:28:02.807Z,14.26
2023-05-09T06:30:31.158Z,13.84
2023-05-09T06:33:00.176Z,13.64
2023-05-09T06:35:29.959Z,13.51
2023-05-09T06:37:58.292Z,13.59
2023-05-09T06:40:26.542Z,13.44
2023-05-09T06:42:54.920Z,13.62
2023-05-09T06:45:23.406Z,13.58
2023-05-09T06:47:52.249Z,13.62
2023-05-09T06:50:21.255Z,13.52
2023-05-09T06:52:51.024Z,13.40
2023-05-09T06:55:19.247Z,13.47
2023-05-09T06:57:49.173Z,13.69
2023-05-09T07:00:19.077Z,13.92
2023-05-09T07:02:47.357Z,14.03
2023-05-09T07:05:16.419Z,14.14
2023-05-09T07:07:45.954Z,14.22
2023-05-09T07:10:16.002Z,14.16
2023-05-09T07:12:44.577Z,13.94
2023-05-09T07:15:13.444Z,14.00
2023-05-09T07:17:42.579Z,14.09
2023-05-09T07:20:11.620Z,14.02
2023-05-09T07:22:40.456Z,14.38
2023-05-09T07:25:10.567Z,14.40
2023-05-09T07:27:41.314Z,14.68
2023-05-09T07:30:10.876Z,14.62
2023-05-09T07:32:39.486Z,14.85
2023-05-09T07:35:08.577Z,14.98
2023-05-09T07:37:37.464Z,14.96
2023-05-09T07:40:07.032Z,15.12
2023-05-09T07:42:35.660Z,14.95
2023-05-09T07:45:07.317Z,14.72
2023-05-09T07:47:35.757Z,15.07
2023-05-09T07:50:03.940Z,15.09
2023-05-09T07:52:32.326Z,15.34
2023-05-09T07:55:00.569Z,15.39
2023-05-09T07:57:28.801Z,15.36
2023-05-09T07:59:57.107Z,15.41
2023-05-09T08:02:26.837Z,15.29
2023-05-09T08:04:55.334Z,15.34
2023-05-09T08:07:23.564Z,15.38
2023-05-09T08:09:52.149Z,15.52
2023-05-09T08:12:20.179Z,15.67
2023-05-09T08:14:48.389Z,15.59
2023-05-09T08:17:16.997Z,15.62
2023-05-09T08:19:46.971Z,15.92
2023-05-09T08:22:18.688Z,16.10
2023-05-09T08:24:47.044Z,16.12
2023-05-09T08:27:15.670Z,15.92
2023-05-09T08:29:45.017Z,16.02
2023-05-09T08:32:13.179Z,15.96
2023-05-09T08:34:41.453Z,15.93
2023-05-09T08:37:14.351Z,15.81
2023-05-09T08:39:43.551Z,15.69
2023-05-09T08:42:12.226Z,16.08
2023-05-09T08:44:40.408Z,15.92
2023-05-09T08:47:09.404Z,16.19
2023-05-09T08:49:38.016Z,16.23
2023-05-09T08:52:07.009Z,16.37
2023-05-09T08:54:37.297Z,16.29
2023-05-09T08:57:06.155Z,16.64
2023-05-09T08:59:37.514Z,16.99
2023-05-09T09:02:09.023Z,16.59
2023-05-09T09:04:37.755Z,16.65
2023-05-09T09:07:08.169Z,16.84
2023-05-09T09:09:39.810Z,16.62
2023-05-09T09:12:11.685Z,16.81
2023-05-09T09:14:43.046Z,16.66
2023-05-09T09:17:13.346Z,17.06
2023-05-09T09:19:44.531Z,16.93
2023-05-09T09:22:16.902Z,16.97
2023-05-09T09:24:46.832Z,17.44
2023-05-09T09:27:15.202Z,17.32
2023-05-09T09:29:43.586Z,17.10
2023-05-09T09:32:12.106Z,17.11
2023-05-09T09:34:41.858Z,16.97
2023-05-09T09:37:10.057Z,16.93
2023-05-09T09:39:38.538Z,17.16
2023-05-09T09:42:14.904Z,17.49
2023-05-09T09:44:44.739Z,17.42
2023-05-09T09:47:14.942Z,17.56
2023-05-09T09:49:48.484Z,17.94
2023-05-09T09:52:27.890Z,17.70
2023-05-09T09:54:58.123Z,17.50
2023-05-09T09:57:38.660Z,17.24
2023-05-09T10:00:09.394Z,17.68
2023-05-09T10:02:49.586Z,18.11
2023-05-09T10:05:23.885Z,18.08
2023-05-09T10:07:59.299Z,18.25
2023-05-09T10:10:29.680Z,18.49
2023-05-09T10:13:01.835Z,18.72
2023-05-09T10:15:41.547Z,18.39
2023-05-09T10:18:21.824Z,18.29
2023-05-09T10:20:50.519Z,18.27
2023-05-09T10:23:20.647Z,18.51
2023-05-09T10:25:56.164Z,18.80
2023-05-09T10:28:32.773Z,19.11
2023-05-09T10:31:10.484Z,18.88
2023-05-09T10:33:45.076Z,18.71
2023-05-09T10:36:14.712Z,18.66
2023-05-09T10:38:44.249Z,18.86
2023-05-09T10:41:14.888Z,18.54
2023-05-09T10:43:45.349Z,18.47
2023-05-09T10:46:14.937Z,18.39
2023-05-09T10:48:46.604Z,18.42
2023-05-09T10:51:15.322Z,18.63
2023-05-09T10:53:46.469Z,18.55
2023-05-09T10:56:32.568Z,18.64
2023-05-09T10:59:03.626Z,18.88
2023-05-09T11:01:35.680Z,18.69
2023-05-09T11:04:12.055Z,18.86
2023-05-09T11:06:49.740Z,18.89
2023-05-09T11:09:29.229Z,18.95
2023-05-09T11:11:59.640Z,19.01
2023-05-09T11:14:42.253Z,19.33
2023-05-09T11:17:13.290Z,19.56
2023-05-09T11:20:05.966Z,19.34
2023-05-09T11:22:41.881Z,19.14
2023-05-09T11:25:12.472Z,19.32
2023-05-09T11:27:44.348Z,19.40
2023-05-09T11:30:17.582Z,19.36
2023-05-09T11:32:50.282Z,19.40
2023-05-09T11:35:21.036Z,19.54
2023-05-09T11:37:52.117Z,19.65
2023-05-09T11:40:22.013Z,19.68
2023-05-09T11:42:55.427Z,19.78
2023-05-09T11:45:28.531Z,19.96
2023-05-09T11:47:57.382Z,19.69
2023-05-09T11:50:26.224Z,19.59
2023-05-09T11:52:55.298Z,19.59
2023-05-09T11:55:25.896Z,19.88
2023-05-09T11:57:55.392Z,19.93
2023-05-09T12:00:26.251Z,19.66
2023-05-09T12:02:57.812Z,19.88
2023-05-09T12:05:26.515Z,19.85
2023-05-09T12:07:55.321Z,19.94
2023-05-09T12:10:24.538Z,20.32
2023-05-09T12:12:55.947Z,20.58
2023-05-09T12:15:25.363Z,20.91
2023-05-09T12:18:06.298Z,21.01
2023-05-09T12:20:45.692Z,20.74
2023-05-09T12:23:15.384Z,20.31
2023-05-09T12:25:50.983Z,19.85
2023-05-09T12:28:20.147Z,20.05
2023-05-09T12:30:49.280Z,20.15
2023-05-09T12:33:23.726Z,20.12
2023-05-09T12:36:05.775Z,20.50
2023-05-09T12:38:34.964Z,20.39
2023-05-09T12:41:05.176Z,20.56
2023-05-09T12:43:35.085Z,20.44
2023-05-09T12:46:05.222Z,20.49
2023-05-09T12:48:40.085Z,20.13
2023-05-09T12:51:09.557Z,20.27
2023-05-09T12:53:41.234Z,20.49
2023-05-09T12:56:15.431Z,20.58
2023-05-09T12:58:51.881Z,20.50
2023-05-09T13:01:20.857Z,20.43
2023-05-09T13:03:56.072Z,20.48
2023-05-09T13:06:24.647Z,20.54
2023-05-09T13:09:01.918Z,20.58
2023-05-09T13:11:32.894Z,20.81
2023-05-09T13:14:03.501Z,20.71
2023-05-09T13:16:32.233Z,20.88
2023-05-09T13:19:03.100Z,20.79
2023-05-09T13:21:32.396Z,20.55
2023-05-09T13:24:01.290Z,20.67
2023-05-09T13:26:30.023Z,20.49
2023-05-09T13:28:58.401Z,20.71
2023-05-09T13:31:26.729Z,20.68
2023-05-09T13:33:55.177Z,20.68
2023-05-09T13:36:25.407Z,20.80
2023-05-09T13:38:54.060Z,20.89
2023-05-09T13:41:24.358Z,21.15
2023-05-09T13:43:53.326Z,21.26
2023-05-09T13:46:23.478Z,21.38
2023-05-09T13:48:52.030Z,21.27
2023-05-09T13:51:22.416Z,21.44
2023-05-09T13:53:53.116Z,21.13
2023-05-09T13:56:21.889Z,20.84
2023-05-09T13:58:52.326Z,20.69
2023-05-09T14:01:21.970Z,20.76
2023-05-09T14:03:51.267Z,20.59
2023-05-09T14:06:19.881Z,20.73
2023-05-09T14:08:48.472Z,21.06
2023-05-09T14:11:19.653Z,20.96
2023-05-09T14:13:48.062Z,20.82
2023-05-09T14:16:16.773Z,20.60
2023-05-09T14:18:46.208Z,20.80
2023-05-09T14:21:14.485Z,20.90
2023-05-09T14:23:43.593Z,20.94
2023-05-09T14:26:12.186Z,21.00
2023-05-09T14:28:44.410Z,20.95
2023-05-09T14:31:13.444Z,21.02
2023-05-09T14:33:41.637Z,20.91
2023-05-09T14:36:10.123Z,20.90
2023-05-09T14:38:39.213Z,21.01
2023-05-09T14:41:09.118Z,20.71
2023-05-09T14:43:37.240Z,20.96
2023-05-09T14:46:07.465Z,20.73
2023-05-09T14:48:36.281Z,20.91
2023-05-09T14:51:04.934Z,20.87
2023-05-09T14:53:35.567Z,20.76
2023-05-09T14:56:03.857Z,20.89
2023-05-09T14:58:34.322Z,20.82
2023-05-09T15:01:02.782Z,20.80
2023-05-09T15:03:33.429Z,20.68
2023-05-09T15:06:02.370Z,20.79
2023-05-09T15:08:31.330Z,20.50
2023-05-09T15:11:00.078Z,20.42
2023-05-09T15:13:29.660Z,20.67
2023-05-09T15:15:59.382Z,20.68
2023-05-09T15:18:28.956Z,20.52
2023-05-09T15:21:00.159Z,20.86
2023-05-09T15:23:28.502Z,20.87
2023-05-09T15:25:57.112Z,20.80
2023-05-09T15:28:26.312Z,20.63
2023-05-09T15:30:54.994Z,20.45
2023-05-09T15:33:24.213Z,20.57
2023-05-09T15:35:55.169Z,20.67
2023-05-09T15:38:25.123Z,20.77
2023-05-09T15:40:53.731Z,21.45
2023-05-09T15:43:22.558Z,22.08
2023-05-09T15:45:50.676Z,22.84
2023-05-09T15:48:19.069Z,22.77
2023-05-09T15:50:47.321Z,22.99
2023-05-09T15:53:16.493Z,23.35
2023-05-09T15:55:46.926Z,23.56
2023-05-09T15:58:17.247Z,23.21
2023-05-09T16:00:45.656Z,23.23
2023-05-09T16:03:14.117Z,23.39
2023-05-09T16:05:43.070Z,22.88
2023-05-09T16:08:11.184Z,23.05
2023-05-09T16:10:39.819Z,22.65
2023-05-09T16:13:09.933Z,22.61
2023-05-09T16:15:38.637Z,23.19
2023-05-09T16:18:07.106Z,24.24
2023-05-09T16:20:35.432Z,24.47
2023-05-09T16:23:03.900Z,24.15
2023-05-09T16:25:34.499Z,23.11
2023-05-09T16:28:03.794Z,23.00
2023-05-09T16:30:33.407Z,23.18
2023-05-09T16:33:01.958Z,23.71
2023-05-09T16:35:30.678Z,23.43
2023-05-09T16:37:59.171Z,22.16
2023-05-09T16:40:27.320Z,22.07
2023-05-09T16:42:55.471Z,21.45
2023-05-09T16:45:24.038Z,20.84
2023-05-09T16:47:55.738Z,20.29
2023-05-09T16:50:24.376Z,20.03
2023-05-09T16:52:52.749Z,19.67
2023-05-09T16:55:20.979Z,19.44
2023-05-09T16:57:49.398Z,19.40
2023-05-09T17:00:18.994Z,19.37
2023-05-09T17:02:47.281Z,19.38
2023-05-09T17:05:16.959Z,19.23
2023-05-09T17:07:45.069Z,19.26
2023-05-09T17:10:13.782Z,19.11
2023-05-09T17:12:42.372Z,19.23
2023-05-09T17:15:13.998Z,19.19
2023-05-09T17:17:43.855Z,19.15
2023-05-09T17:20:13.427Z,19.16
2023-05-09T17:22:44.213Z,19.15
2023-05-09T17:25:12.701Z,18.94
2023-05-09T17:27:42.853Z,19.19
2023-05-09T17:30:11.974Z,18.91
2023-05-09T17:32:42.923Z,19.13
2023-05-09T17:35:12.454Z,19.10
2023-05-09T17:37:42.378Z,19.06
2023-05-09T17:40:11.370Z,18.98
2023-05-09T17:42:39.638Z,18.91
2023-05-09T17:45:09.483Z,18.86
2023-05-09T17:47:38.727Z,18.76
2023-05-09T17:50:09.588Z,18.66
2023-05-09T17:52:38.429Z,18.53
2023-05-09T17:55:09.163Z,18.49
2023-05-09T17:57:37.632Z,18.43
2023-05-09T18:00:09.186Z,18.32
2023-05-09T18:02:38.010Z,18.20
2023-05-09T18:05:07.117Z,18.11
2023-05-09T18:07:35.665Z,18.03
2023-05-09T18:10:04.873Z,17.88
2023-05-09T18:12:37.347Z,17.98
2023-05-09T18:15:07.490Z,17.87
2023-05-09T18:17:36.733Z,17.92
2023-05-09T18:20:07.144Z,17.85
2023-05-09T18:22:37.425Z,17.72
2023-05-09T18:25:06.420Z,17.70
2023-05-09T18:27:36.540Z,17.63
2023-05-09T18:30:05.322Z,17.65
2023-05-09T18:32:33.885Z,17.54
2023-05-09T18:35:02.336Z,17.48
2023-05-09T18:37:30.844Z,17.37
2023-05-09T18:39:59.059Z,17.33
2023-05-09T18:42:28.206Z,17.25
2023-05-09T18:45:00.909Z,17.16
2023-05-09T18:47:29.474Z,17.10
2023-05-09T18:50:01.010Z,17.02
2023-05-09T18:52:31.379Z,16.96
2023-05-09T18:54:59.957Z,16.91
2023-05-09T18:57:28.436Z,16.87
2023-05-09T18:59:59.638Z,16.84
2023-05-09T19:02:28.068Z,16.85
2023-05-09T19:04:56.674Z,16.81
2023-05-09T19:07:25.042Z,16.79
2023-05-09T19:09:53.744Z,16.79
2023-05-09T19:12:22.582Z,16.76
2023-05-09T19:14:51.174Z,16.56
2023-05-09T19:17:21.161Z,16.61
2023-05-09T19:19:49.385Z,16.58
2023-05-09T19:22:17.870Z,16.46
2023-05-09T19:24:45.987Z,16.34
2023-05-09T19:27:14.530Z,16.36
2023-05-09T19:29:42.875Z,16.30
2023-05-09T19:32:11.237Z,16.26
2023-05-09T19:34:40.969Z,16.15
2023-05-09T19:37:09.283Z,16.14
2023-05-09T19:39:38.497Z,16.11
2023-05-09T19:42:06.727Z,16.07
2023-05-09T19:44:35.104Z,16.02
2023-05-09T19:47:05.421Z,15.92
2023-05-09T19:49:35.232Z,15.74
2023-05-09T19:52:05.125Z,15.94
2023-05-09T19:54:34.408Z,15.85
2023-05-09T19:57:06.566Z,15.79
2023-05-09T19:59:35.274Z,15.72
2023-05-09T20:02:04.003Z,15.65
2023-05-09T20:04:37.279Z,15.69
2023-05-09T20:07:07.027Z,15.63
2023-05-09T20:09:35.310Z,15.52
2023-05-09T20:12:04.084Z,15.70
2023-05-09T20:14:32.452Z,15.67
2023-05-09T20:17:01.025Z,15.68
2023-05-09T20:19:29.317Z,15.76
2023-05-09T20:21:57.492Z,15.76
2023-05-09T20:24:27.307Z,15.77
2023-05-09T20:26:57.090Z,15.73
2023-05-09T20:29:26.133Z,15.70
2023-05-09T20:31:54.524Z,15.68
2023-05-09T20:34:24.695Z,15.55
2023-05-09T20:36:54.043Z,15.53
2023-05-09T20:39:23.357Z,15.54
2023-05-09T20:41:53.384Z,15.56
2023-05-09T20:44:21.528Z,15.62
2023-05-09T20:46:49.669Z,15.57
2023-05-09T20:49:18.308Z,15.32
2023-05-09T20:51:47.057Z,15.52
2023-05-09T20:54:15.351Z,15.53
2023-05-09T20:56:43.806Z,15.48
2023-05-09T20:59:14.441Z,15.46
2023-05-09T21:01:44.264Z,15.46
2023-05-09T21:04:12.445Z,15.46
2023-05-09T21:06:40.478Z,15.40
2023-05-09T21:09:09.218Z,15.38
2023-05-09T21:11:38.504Z,15.29
2023-05-09T21:14:06.891Z,15.25
2023-05-09T21:16:36.811Z,15.37
2023-05-09T21:19:05.483Z,15.39
2023-05-09T21:21:34.149Z,15.32
2023-05-09T21:24:04.493Z,15.28
2023-05-09T21:26:32.685Z,15.26
2023-05-09T21:29:01.052Z,15.27
2023-05-09T21:31:29.152Z,15.24
2023-05-09T21:33:59.472Z,15.21
2023-05-09T21:36:28.236Z,15.19
2023-05-09T21:38:56.522Z,15.06
2023-05-09T21:41:24.622Z,14.89
2023-05-09T21:43:52.797Z,14.69
2023-05-09T21:46:21.250Z,14.48
2023-05-09T21:48:50.052Z,14.37
2023-05-09T21:51:19.552Z,14.33
2023-05-09T21:53:47.648Z,14.38
2023-05-09T21:56:15.957Z,14.44
2023-05-09T21:58:44.097Z,14.47
2023-05-09T22:01:12.297Z,14.53
2023-05-09T22:03:40.706Z,14.56
2023-05-09T22:06:09.101Z,14.60
2023-05-09T22:08:38.776Z,14.63
2023-05-09T22:11:08.324Z,14.63
2023-05-09T22:13:37.334Z,14.63
2023-05-09T22:16:07.206Z,14.56
2023-05-09T22:18:35.364Z,14.52
2023-05-09T22:21:03.542Z,14.62
2023-05-09T22:23:31.794Z,14.59
2023-05-09T22:26:01.444Z,14.60
2023-05-09T22:28:29.521Z,14.66
2023-05-09T22:30:57.696Z,14.70
2023-05-09T22:33:25.765Z,14.68
2023-05-09T22:35:53.954Z,14.69
2023-05-09T22:38:21.969Z,14.68
2023-05-09T22:40:50.004Z,14.67
2023-05-09T22:43:20.735Z,14.55
2023-05-09T22:45:48.967Z,14.66
2023-05-09T22:48:17.079Z,14.64
2023-05-09T22:50:45.276Z,14.62
2023-05-09T22:53:13.381Z,14.57
2023-05-09T22:55:42.048Z,14.52
2023-05-09T22:58:10.867Z,14.55
2023-05-09T23:00:40.859Z,14.50
2023-05-09T23:03:09.158Z,14.47
2023-05-09T23:05:37.572Z,14.42
2023-05-09T23:08:05.805Z,14.39
2023-05-09T23:10:34.103Z,14.31
2023-05-09T23:13:02.232Z,14.26
2023-05-09T23:15:30.781Z,14.19
2023-05-09T23:18:00.451Z,14.19
2023-05-09T23:20:28.704Z,14.11
2023-05-09T23:22:57.014Z,14.07
2023-05-09T23:25:25.332Z,14.15
2023-05-09T23:27:54.895Z,14.09
2023-05-09T23:30:22.997Z,14.11
2023-05-09T23:32:52.257Z,13.99
2023-05-09T23:35:22.360Z,14.08
2023-05-09T23:37:50.695Z,14.15
2023-05-09T23:40:19.487Z,14.21
2023-05-09T23:42:48.079Z,14.24
2023-05-09T23:45:16.469Z,14.25
2023-05-09T23:47:44.483Z,14.24
2023-05-09T23:50:13.985Z,14.21
2023-05-09T23:52:44.270Z,14.23
2023-05-09T23:55:13.373Z,14.17
2023-05-09T23:57:41.898Z,14.13
